Flight ASX419

  • Submitted By: Krzysztof H. Blaszkow
  • Departure Airport: Dublin (EIDW)
  • Arrival Airport: Cork Airport (EICK)
  • Aircraft: BE58 (EJ-IAWH)
  • Flight Time: 01.23.01
  • Date Submitted: 03/18/2017
  • Status: Rejected
Flight Details
Gross Revenue:
(5 load / € 55.00 per unit
€ 275.00
Fuel Cost:
(68.4924 fuel used @ 0.45 / unit)
€ 30.82

Additional Log Information:

View Log

[17:04] - Carenado BARON B58 GOLD GREEN
[17:04] - Flight ASX419 is ready to depart EIDW with a final destination of EICK.
[17:04] - Parking Brake Applied
[17:04] - Beacon Light ON
[17:04] - Wing Lights ON
[17:04] - Boarding
[17:05] - ADF1 - 284.0
[17:05] - ADF2 - 240.0
[17:05] - NAV1 - 114.90
[17:05] - NAV2 - 110.60
[17:05] - COM1 - 122.80
[17:05] - COM2 - 127.80
[17:05] - Transponder - 2000
[17:10] - Taxi Lights ON 3AGL
[17:11] - Engine 1 Started
[17:11] - Engine 2 Started
[17:12] - Parking Brake Released
[17:20] - Taxiing to Runway
[17:23] - Landing Lights ON 3AGL
[17:23] - Taxi Lights OFF 3AGL
[17:23] - Strobe Lights ON 3AGL
[17:26] - Flaps to position 1
[17:26] - Taking Off with 5 passengers on board
[17:27] - Take off at 104kts, with a pitch of 3deg and 401lbs of fuel on board
[17:27] - Wind Heading 245 | Wind Speed 16kts | Temperature 11 deg C
[17:27] - METAR Departure: EIDW 181700Z 25021KT 8000 -DZ FEW010 BKN012 BKN018 12/10 Q1008 NOSIG

[17:27] - Gear up at 49AGL
[17:27] - Flaps to position 0 at 525ft and 138kts
[17:27] - Climbing to TOC
[17:30] - AutoPilot Engaged at 5361AGL
[17:36] - Landing Lights OFF 8475AGL
[17:40] - TOC reached
[17:40] - Cruise started
[17:42] - NAV1 - 114.60
[17:48] - NAV1 - 109.90
[17:52] - NAV1 - 114.60
[18:03] - TOD reached
[18:03] - Descending to destination
[18:05] - Landing Lights ON 9337AGL
[18:18] - NAV1 - 109.90
[18:18] - Landing Shortly
[18:21] - AutoPilot Disengaged at 3986AGL
[18:22] - Flaps to position 1 at 2641ft and 185kts
[18:23] - Gear down at 338AGL
[18:23] - Landed at -394fpm. With 256lbs of fuel onboard and a pitch angle of 1deg.
[18:23] - Wind Heading 244 | Wind Speed 20kts | Temperature 12 deg C
[18:23] - METAR Arrival: EICK 181800Z 26018KT 9999 BKN007 BKN040 11/10 Q1013 NOSIG

[18:23] - Flaps to position 2
[18:24] - Flaps to position 1
[18:24] - Flaps to position 0
[18:24] - Taxiing to Gate
[18:26] - Landing Lights OFF 0AGL
[18:26] - Taxi Lights ON 0AGL
[18:27] - Parking Brake Applied
[18:27] - Arrived safely at EICK. We hope you enjoyed your flight!
[18:27] - Instrument Lights ON 0AGL
[18:27] - Engine 2 Stopped
[18:28] - Engine 1 Stopped
[18:28] - Carenado BARON B58 GOLD GREEN
[18:28] - MaxSim Rate: 1x
[18:28] - SiouxAcars ver: 1.0.1.2

Comments

Commenter Comment
Krzysztof H. Blaszkow uziemniony 24hrs
Rafal Piotrowski Touchdown

Route Map